EPZG/IEG METAR and TAF weather

Enter ICAO airport designator
Station Type Date Time Source
EPZG METAR 2022/01/26 07:30 UTC NOAA

EPZG 260730Z 24008KT 7000 -DZ OVC006 03/03 Q1026


Station Type Date Time Source
EPZG Decoded METAR 2022/01/26 07:30 UTC NOAA

Zielona Gora, Poland (EPZG) 51-56N 015-32E 192M
Jan 26, 2022 - 02:30 AM EST / 2022.01.26 0730 UTC
Wind: from the WSW (240 degrees) at 9 MPH (8 KT):0
Visibility: 4 mile(s):0
Sky conditions: overcast
Weather: light drizzle
Temperature: 37 F (3 C)
Dew Point: 37 F (3 C)
Relative Humidity: 100%
Pressure (altimeter): 30.30 in. Hg (1026 hPa)
ob: EPZG 260730Z 24008KT 7000 -DZ OVC006 03/03 Q1026
cycle: 7

Station Type Date Time Source
EPZG TAF 2012/06/28 21:49 UTC NOAA

TAF EPZG 282000Z 2821/2906 VRB02KT CAVOK
TEMPO 2823/2904 5000 BR PROB30 2900/2904 1500 BR BKN005

Example: see airport list